Erwinna, Pennsylvania
Current Conditions -  °F | °C
As of 3:54 PM on Wednesday 17 Dec 2014 (Local Time) from KDYL Reporting Station
Scattered Clouds Scattered Clouds  
Wind Chill: 39°   Ceiling: Unl
Heat Index: 45°   Visibility: 10mi
Dew Point: 31°   Wind: 14mph
Humidity: 58%   Direction: 280°W
Pressure: 29.89"   Gusts: 25mph
Location:  40.5°N, 75.07°W
Report Text: KDYL 172054Z AUTO 28012G22KT 10SM SCT042 07/M01 A2989 RMK AO2 SLP124 T00721006 53011
Loading
Personal Weather Stations






























Interactive Weather Map New forecast layout! Learn more

10-Day Weather Forecast

Advertisements
Track Severe Weather on mobile